Tiempo atmosférico en la estación meteorológica de Cañaveral, Cáceres (373 m.)



Fecha
DESCASC
Temp. máxima en grados centígrados (hora)
DESCASC
Temp. mínima en grados centígrados (hora)
DESCASC
Temp. media en grados centígrados
DESCASC
Racha de viento máxima en m/sg (hora)
DESCASC
Velocidad máxima media en intervalos de 10 minutos(hora)
DESCASC
Precipitaciones diarias en mm
DESCASC
Precipitaciones de 00:00 a 06:00 en mm
DESCASC
Precipitaciones de 06:00 a 12:00 en mm
DESCASC
Precipitaciones de 12:00 a 18:00 en mm
DESCASC
Precipitaciones de 18:00 a 24:00 en mm
DESCASC
18-10-2018 21.8 (18:00) 13 (06:40) 17.4 12.22 (15:40) 7.78 (15:40) 14.6 9.8 4.8 0 0
17-10-2018 23.6 (16:50) 11.6 (07:30) 17.6 8.61 (00:30) 6.11 (00:30) 0 0 0 0 0
16-10-2018 20.8 (16:50) 11.7 (03:30) 16.2 7.78 (00:10) 5.83 (23:59) 0 0 0 0 0
15-10-2018 12.8 (16:10) 10.4 (04:40) 11.6 10.28 (01:00) 7.22 (01:00) 23 0 7.4 15.6 0
14-10-2018 22.9 (00:00) 11.7 (00:00) 17.3 17.22 (09:30) 11.67 (09:30) 9.2 9.2 0 0 0
13-10-2018 28.3 (17:00) 16.8 (00:00) 22.5 10 (16:40) 6.11 (23:50) 0 0 0 0 0
12-10-2018 25.1 (17:00) 14.6 (00:00) 19.9 7.22 (14:30) 3.89 (14:10) 0 0 0 0 0
11-10-2018 20.5 (18:20) 16 (06:50) 18.3 9.44 (16:50) 5.28 (17:00) 9.6 1.8 5 2.8 0
10-10-2018 24.5 (17:50) 13.7 (00:00) 19.1 11.39 (02:30) 6.94 (02:30) 0 0 0 0 0
09-10-2018 23.3 (17:30) 13.3 (08:00) 18.3 13.61 (11:00) 8.61 (10:50) 0 0 0 0 0
08-10-2018 23.5 (16:30) 13 (08:30) 18.3 12.5 (05:40) 8.61 (05:30) 0 0 0 0 0
07-10-2018 24.1 (16:50) 12.3 (08:30) 18.2 16.11 (08:50) 11.11 (08:40) 0 0 0 0 0
06-10-2018 30.6 (17:50) 14.9 (08:40) 22.8 10.83 (21:00) 8.33 (21:50) 0 0 0 0 0
05-10-2018 31.2 (16:30) 14.6 (07:10) 22.9 8.06 (16:40) 4.72 (17:00) 0 0 0 0 0
04-10-2018 31.6 (17:00) 15.7 (00:00) 23.7 8.33 (16:00) 5 (03:20) 0 0 0 0 0
03-10-2018 30.3 (17:00) 13.9 (00:00) 22.1 7.22 (16:10) 3.89 (16:00) 0 0 0 0 0
02-10-2018 28.4 (17:20) 15.2 (00:00) 21.8 12.5 (01:30) 8.89 (01:30) 0 0 0 0 0
01-10-2018 29.4 (17:10) 17.7 (00:00) 23.6 14.17 (07:20) 10 (07:20) 0 0 0 0 0
30-09-2018 32.8 (17:10) 16.5 (00:00) 24.6 7.78 (23:50) 5.83 (23:50) 0 0 0 0 0
29-09-2018 32.3 (16:20) 19 (00:00) 25.6 9.44 (13:30) 5.28 (11:00) 0 0 0 0 0
28-09-2018 31.8 (17:00) 19.1 (00:00) 25.4 6.39 (15:50) 3.33 (15:50) 0 0 0 0 0
27-09-2018 29.9 (17:30) 19.2 (00:00) 24.6 13.89 (09:50) 9.44 (10:40) 0 0 0 0 0
26-09-2018 28.7 (00:00) 21.3 (00:00) 25 15.83 (06:10) 9.72 (10:00) 0 0 0 0 0
25-09-2018 35.2 (16:40) 22.2 (00:00) 28.7 10.83 (03:20) 7.5 (02:40) 0 0 0 0 0
24-09-2018 35.7 (16:20) 24.5 (00:00) 30.1 10.83 (23:30) 8.61 (23:30) 0 0 0 0 0
23-09-2018 35.8 (18:10) 21.8 (06:50) 28.8 10.56 (03:40) 8.06 (03:50) 0 0 0 0 0
22-09-2018 36.2 (17:40) 20.3 (08:30) 28.3 8.33 (01:30) 5.28 (01:40) 0 0 0 0 0
21-09-2018 33.7 (17:40) 22.2 (08:30) 28 -- (--) -- (--) 0 0 0 0 0
20-09-2018 34.8 (16:40) 18.4 (08:40) 26.6 10.28 (22:40) 7.5 (22:40) 0 0 0 0 0

Gráficas

Temp. máximas Temp. mínimas Temp. medias Precipitaciones Rachas de viento máximas Velocidades máximas media en intervalos de 10 minutos

Datos horarios

Fecha y hora oficial Temperatura (ºC) Velocidad del viento (km/h) Dirección del viento Racha (km/h) Dirección de racha Precipitación (mm) Presión (hPa) Tendencia (hPa) Humedad (%)
2018-10-19 23:00:00 15.6 13 Este 28 Este 0.2 -- -- 90
2018-10-19 22:00:00 16 17 Este 31 Nordeste 0.6 -- -- 87
2018-10-19 21:00:00 15.9 10 Nordeste 30 Nordeste 0.4 -- -- 87
2018-10-19 20:00:00 16 21 Este 36 Este 0.4 -- -- 86
2018-10-19 19:00:00 20.4 9 Nordeste 26 Este 0 -- -- 59
2018-10-19 18:00:00 21.1 14 Este 26 Nordeste 0 -- -- 56
2018-10-19 17:00:00 21.4 19 Nordeste 31 Nordeste 0 -- -- 53
2018-10-19 16:00:00 20.9 21 Nordeste 32 Nordeste 0 -- -- 56
2018-10-19 15:00:00 19.6 12 Nordeste 35 Nordeste 0 -- -- 64
2018-10-19 14:00:00 19.9 21 Este 37 Este 0 -- -- 62
2018-10-19 13:00:00 18 22 Este 39 Este 0 -- -- 70
2018-10-19 12:00:00 16.9 18 Este 28 Este 0 -- -- 77
2018-10-19 11:00:00 16.5 7 Nordeste 28 Nordeste 0 -- -- 80
2018-10-19 10:00:00 15.8 17 Este 28 Nordeste 0 -- -- 83
2018-10-19 09:00:00 15.3 13 Nordeste 31 Nordeste 0 -- -- 85
2018-10-19 08:00:00 15.2 16 Este 29 Nordeste 0.4 -- -- 87
2018-10-19 07:00:00 15.2 15 Este 25 Este 0 -- -- 87
2018-10-19 06:00:00 15.2 5 Nordeste 9 Norte 0 -- -- 85
2018-10-19 05:00:00 15.3 8 Norte 17 Nordeste 0 -- -- 84
2018-10-19 04:00:00 15.5 8 Nordeste 27 Este 0.4 -- -- 83
2018-10-19 03:00:00 17.3 11 Nordeste 22 Norte 0 -- -- 71
2018-10-19 02:00:00 17.8 11 Norte 18 Norte 0 -- -- 66
2018-10-19 01:00:00 18.2 13 Norte 20 Nordeste 0 -- -- 63
2018-10-19 00:00:00 19.2 12 Nordeste 21 Nordeste 0 -- -- 58
2018-10-18 23:00:00 19.1 12 Nordeste 25 Norte 0 -- -- 58
2018-10-18 22:00:00 19.3 8 Norte 15 Norte 0 -- -- 58
2018-10-18 21:00:00 19 10 Norte 15 Norte 0 -- -- 59
2018-10-18 20:00:00 19 10 Nordeste 26 Norte 0 -- -- 59
2018-10-18 19:00:00 19.6 16 Norte 28 Norte 0 -- -- 63
2018-10-18 18:00:00 21.8 13 Nordeste 30 Nordeste 0 -- -- 54
2018-10-18 17:00:00 21.4 18 Nordeste 37 Este 0 -- -- 56
2018-10-18 16:00:00 20.8 26 Nordeste 44 Nordeste 0 -- -- 56
2018-10-18 15:00:00 20.1 25 Nordeste 40 Nordeste 0 -- -- 59
2018-10-18 14:00:00 18.2 15 Nordeste 33 Nordeste 0 -- -- 71
2018-10-18 13:00:00 16.5 20 Norte 32 Norte 0 -- -- 77
2018-10-18 12:00:00 15.7 17 Nordeste 35 Nordeste 0 -- -- 77
2018-10-18 11:00:00 14.8 20 Nordeste 36 Este 0 -- -- 82
2018-10-18 10:00:00 14.6 17 Nordeste 33 Nordeste 0 -- -- 83
2018-10-18 09:00:00 13.7 20 Norte 38 Norte 0.6 -- -- 91
2018-10-18 08:00:00 13.8 18 Este 29 Este 0.8 -- -- 86
2018-10-18 07:00:00 13 8 Norte 19 Sudoeste 3.4 -- -- 95
2018-10-18 06:00:00 13.5 2 Este 12 Nordeste 0.2 -- -- 92
2018-10-18 05:00:00 13.1 4 Oeste 15 Sudoeste 0 -- -- 95
2018-10-18 04:00:00 13.4 0 Calma 22 Sudoeste 9 -- -- 93
2018-10-18 03:00:00 14.3 0 Calma 16 Oeste 0.2 -- -- 88
2018-10-18 02:00:00 14.6 9 Oeste 20 Oeste 0 -- -- 86
2018-10-18 01:00:00 15.1 7 Oeste 15 Oeste 0.4 -- -- 83
2018-10-18 00:00:00 16 12 Oeste 24 Oeste 0 -- -- 75
2018-10-17 23:00:00 16.8 16 Oeste 24 Oeste 0 -- -- 70
2018-10-17 22:00:00 17.5 0 Calma 8 Sudoeste 0 -- -- 66
2018-10-17 21:00:00 18.4 7 Sudoeste 14 Sudoeste 0 -- -- 63
2018-10-17 20:00:00 19.6 13 Oeste 30 Oeste 0 -- -- 56
2018-10-17 19:00:00 21 17 Oeste 24 Oeste 0 -- -- 52
2018-10-17 18:00:00 22.3 8 Oeste 20 Oeste 0 -- -- 49
2018-10-17 17:00:00 23.3 13 Sudoeste 26 Sudoeste 0 -- -- 45
2018-10-17 16:00:00 22.1 11 Oeste 23 Sudoeste 0 -- -- 49
2018-10-17 15:00:00 22.4 11 Sudoeste 23 Oeste 0 -- -- 49
2018-10-17 14:00:00 21.6 6 Sur 16 Sur 0 -- -- 53
2018-10-17 13:00:00 19.9 4 Sudeste 10 Sudeste 0 -- -- 62
2018-10-17 12:00:00 18.3 5 Sur 9 Sur 0 -- -- 68
2018-10-17 11:00:00 16 3 Sur 6 Sur 0 -- -- 77
2018-10-17 10:00:00 13.9 0 Calma 2 Sudeste 0 -- -- 86
2018-10-17 09:00:00 11.8 0 Calma 4 Noroeste 0 -- -- 89
2018-10-17 08:00:00 11.7 0 Calma 8 Este 0 -- -- 90
2018-10-17 07:00:00 12 2 Oeste 8 Oeste 0 -- -- 89
2018-10-17 06:00:00 13 2 Este 6 Oeste 0 -- -- 83
2018-10-17 05:00:00 13.3 0 Calma 5 Oeste 0 -- -- 84
2018-10-17 04:00:00 14.3 3 Oeste 7 Este 0 -- -- 77
2018-10-17 03:00:00 15.5 2 Sudeste 27 Norte 0 -- -- 70
2018-10-17 02:00:00 16.1 21 Norte 28 Norte 0 -- -- 67
2018-10-17 01:00:00 16 17 Norte 31 Norte 0 -- -- 68
2018-10-17 00:00:00 16.4 21 Norte 28 Norte 0 -- -- 68
2018-10-16 23:00:00 16.9 17 Norte 23 Noroeste 0 -- -- 67
2018-10-16 22:00:00 16.7 4 Nordeste 10 Norte 0 -- -- 68
2018-10-16 21:00:00 16.4 4 Nordeste 9 Nordeste 0 -- -- 70
2018-10-16 20:00:00 17.1 6 Norte 9 Norte 0 -- -- 68
2018-10-16 19:00:00 20.5 7 Noroeste 13 Noroeste 0 -- -- 55
2018-10-16 18:00:00 20.6 8 Noroeste 15 Noroeste 0 -- -- 56
2018-10-16 17:00:00 20.8 10 Norte 18 Este 0 -- -- 55
2018-10-16 16:00:00 19.8 6 Nordeste 18 Este 0 -- -- 59
2018-10-16 15:00:00 19 7 Nordeste 17 Norte 0 -- -- 64
2018-10-16 14:00:00 17.5 10 Norte 26 Norte 0 -- -- 68
2018-10-16 13:00:00 16.9 11 Norte 24 Norte 0 -- -- 71
2018-10-16 12:00:00 16 14 Este 23 Este 0 -- -- 72
2018-10-16 11:00:00 14.4 10 Norte 20 Este 0 -- -- 84
2018-10-16 10:00:00 14.4 11 Este 17 Nordeste 0 -- -- 83
2018-10-16 09:00:00 12.5 8 Nordeste 13 Nordeste 0 -- -- 88
2018-10-16 08:00:00 12.1 8 Nordeste 15 Nordeste 0 -- -- 90
2018-10-16 07:00:00 12 8 Nordeste 15 Nordeste 0 -- -- 92
2018-10-16 06:00:00 12.4 5 Nordeste 15 Nordeste 0 -- -- 90
2018-10-16 05:00:00 12 4 Nordeste 10 Nordeste 0 -- -- 90
2018-10-16 04:00:00 11.9 5 Nordeste 13 Nordeste 0 -- -- 93
2018-10-16 03:00:00 12.1 8 Nordeste 22 Este 0 -- -- 92
2018-10-16 02:00:00 12.5 17 Este 27 Este 0 -- -- 92
2018-10-16 01:00:00 12.6 10 Nordeste 28 Este 0 -- -- 92
2018-10-16 00:00:00 12.5 15 Este 24 Este 0 -- -- 94
2018-10-15 23:00:00 12.5 13 Este 23 Este 0 -- -- 94
2018-10-15 22:00:00 12.6 17 Este 26 Este 0 -- -- 92
2018-10-15 21:00:00 12.5 15 Este 27 Este 0 -- -- 92
2018-10-15 20:00:00 12.6 15 Este 27 Este 0 -- -- 91
2018-10-15 19:00:00 12.7 17 Este 30 Este 0 -- -- 92
2018-10-15 18:00:00 12.7 17 Este 35 Este 0 -- -- 92
2018-10-15 17:00:00 12.7 18 Este 31 Este 0 -- -- 93
2018-10-15 16:00:00 12.6 22 Este 35 Este 0 -- -- 93
2018-10-15 15:00:00 11.9 22 Este 33 Este 1.8 -- -- 96
2018-10-15 14:00:00 11.6 22 Este 32 Este 1.6 -- -- 95
2018-10-15 13:00:00 11.2 9 Nordeste 24 Sudeste 12.2 -- -- 95
2018-10-15 12:00:00 11.2 14 Sudeste 24 Sudeste 4.6 -- -- 94
2018-10-15 11:00:00 11 8 Sudeste 17 Sudeste 2.4 -- -- 93
2018-10-15 10:00:00 11 8 Sudeste 13 Sudeste 0.4 -- -- 90
2018-10-15 09:00:00 10.9 6 Este 9 Este 0 -- -- 88
2018-10-15 08:00:00 10.9 4 Este 8 Este 0 -- -- 86
2018-10-15 07:00:00 10.7 3 Sur 9 Sudoeste 0 -- -- 82
2018-10-15 06:00:00 10.6 6 Sudoeste 15 Sudoeste 0 -- -- 80
2018-10-15 05:00:00 10.5 8 Sudoeste 24 Oeste 0 -- -- 79
2018-10-15 04:00:00 10.9 21 Oeste 35 Oeste 0 -- -- 75
2018-10-15 03:00:00 10.7 17 Oeste 35 Oeste 0 -- -- 77
2018-10-15 02:00:00 11.3 22 Oeste 36 Oeste 0 -- -- 73
2018-10-15 01:00:00 11.8 26 Oeste 37 Oeste 0 -- -- 71
2018-10-15 00:00:00 12.2 21 Oeste 33 Oeste 0 -- -- 71
2018-10-14 23:00:00 13 22 Oeste 32 Oeste 0 -- -- 67
2018-10-14 22:00:00 13.9 23 Oeste 35 Oeste 0 -- -- 65
2018-10-14 21:00:00 15.1 18 Oeste 30 Oeste 0 -- -- 58
2018-10-14 20:00:00 16.4 22 Oeste 41 Oeste 0 -- -- 49
2018-10-14 19:00:00 17.8 25 Oeste 40 Oeste 0 -- -- 47
2018-10-14 18:00:00 17.4 24 Oeste 48 Oeste 0 -- -- 46
2018-10-14 17:00:00 18.4 25 Oeste 49 Oeste 0 -- -- 44
2018-10-14 16:00:00 18.1 25 Oeste 47 Oeste 0 -- -- 47
2018-10-14 15:00:00 16.1 27 Oeste 46 Oeste 0 -- -- 53
2018-10-14 14:00:00 17.2 26 Oeste 53 Noroeste 0 -- -- 48
2018-10-14 13:00:00 15.9 34 Oeste 59 Oeste 0 -- -- 51
2018-10-14 12:00:00 15 28 Oeste 57 Noroeste 0 -- -- 54
2018-10-14 11:00:00 13.6 29 Oeste 62 Oeste 0 -- -- 59
2018-10-14 10:00:00 12.6 33 Oeste 62 Noroeste 0 -- -- 64
2018-10-14 09:00:00 12 36 Oeste 59 Noroeste 0 -- -- 68
2018-10-14 08:00:00 12.2 31 Oeste 46 Oeste 0 -- -- 80
2018-10-14 07:00:00 12 30 Oeste 44 Oeste 0 -- -- 87
2018-10-14 06:00:00 12.8 23 Oeste 33 Oeste 0 -- -- 90
2018-10-14 05:00:00 13.9 17 Sudoeste 30 Oeste 0.2 -- -- 89
2018-10-14 04:00:00 15.4 16 Oeste 30 Oeste 0.2 -- -- 89
2018-10-14 03:00:00 16.3 19 Sudoeste 30 Oeste 4.8 -- -- 90
2018-10-14 02:00:00 17.2 24 Oeste 59 Sudoeste 4 -- -- 87
2018-10-14 01:00:00 22.3 26 Sur 39 Sur 0 -- -- 55
2018-10-14 00:00:00 22.9 20 Sur 33 Sur 0 -- -- 55
2018-10-13 23:00:00 23 13 Sur 23 Sur 0 -- -- 52
2018-10-13 22:00:00 23.1 11 Sudeste 19 Sudeste 0 -- -- 47
2018-10-13 21:00:00 23.6 4 Sur 14 Sudeste 0 -- -- 45
2018-10-13 20:00:00 25.5 8 Sudeste 25 Sur 0 -- -- 41
2018-10-13 19:00:00 27.4 17 Sur 32 Sudeste 0 -- -- 38
2018-10-13 18:00:00 27.7 20 Sur 31 Sudeste 0 -- -- 40
2018-10-13 17:00:00 28.3 20 Sudeste 36 Sudeste 0 -- -- 36
2018-10-13 16:00:00 28.2 18 Sudeste 33 Sur 0 -- -- 40
2018-10-13 15:00:00 27.3 13 Sudeste 27 Este 0 -- -- 49
2018-10-13 14:00:00 25.6 12 Este 25 Este 0 -- -- 55
2018-10-13 13:00:00 24.5 15 Este 25 Este 0 -- -- 59
2018-10-13 12:00:00 23 16 Este 24 Este 0 -- -- 63
2018-10-13 11:00:00 20.5 13 Este 21 Este 0 -- -- 76
2018-10-13 10:00:00 18.7 6 Este 17 Nordeste 0 -- -- 83
2018-10-13 09:00:00 16.9 9 Nordeste 15 Nordeste 0 -- -- 88
2018-10-13 08:00:00 17.3 10 Nordeste 17 Nordeste 0 -- -- 85
2018-10-13 07:00:00 17.2 10 Nordeste 18 Nordeste 0 -- -- 87
2018-10-13 06:00:00 17.2 11 Nordeste 19 Este 0 -- -- 90
2018-10-13 05:00:00 17.2 10 Nordeste 17 Este 0 -- -- 89
2018-10-13 04:00:00 18.1 9 Nordeste 15 Nordeste 0 -- -- 83
2018-10-13 03:00:00 17.7 10 Nordeste 16 Nordeste 0 -- -- 85
2018-10-13 02:00:00 17.8 9 Nordeste 14 Este 0 -- -- 85
2018-10-13 01:00:00 18.7 8 Nordeste 13 Nordeste 0 -- -- 80
2018-10-13 00:00:00 19.5 7 Nordeste 13 Nordeste 0 -- -- 76
2018-10-12 23:00:00 19.3 9 Norte 13 Norte 0 -- -- 77
2018-10-12 22:00:00 19.7 9 Nordeste 14 Este 0 -- -- 75
2018-10-12 21:00:00 20.4 8 Este 15 Este 0 -- -- 71
2018-10-12 20:00:00 22.4 8 Nordeste 13 Nordeste 0 -- -- 57
2018-10-12 19:00:00 24.3 4 Sudoeste 10 Sur 0 -- -- 47
2018-10-12 18:00:00 25 8 Sudoeste 16 Sudeste 0 -- -- 45
2018-10-12 17:00:00 25.1 5 Sudoeste 19 Sur 0 -- -- 47
2018-10-12 16:00:00 24.2 8 Sur 22 Sur -- -- -- 48
2018-10-12 15:00:00 23.6 11 Sur 26 Sur 0 -- -- 51
2018-10-12 14:00:00 23.1 10 Sur 21 Sur 0 -- -- 57
2018-10-12 13:00:00 21.3 8 Sudeste 17 Sur 0 -- -- 61
2018-10-12 12:00:00 20.4 6 Sur 11 Sur 0 -- -- 62
2018-10-12 11:00:00 18.8 3 Este 6 Este 0 -- -- 70
2018-10-12 10:00:00 16.6 3 Nordeste 10 Nordeste 0 -- -- 80
2018-10-12 09:00:00 15.1 2 Nordeste 6 Norte 0 -- -- 84
2018-10-12 08:00:00 15 4 Norte 5 Norte 0 -- -- 86
2018-10-12 07:00:00 15 4 Norte 5 Nordeste 0 -- -- 86
2018-10-12 06:00:00 14.8 4 Nordeste 6 Nordeste 0 -- -- 84
2018-10-12 05:00:00 15.1 3 Norte 5 Norte 0 -- -- 82
2018-10-12 04:00:00 15 3 Este 5 Este 0 -- -- 84
2018-10-12 03:00:00 15.8 3 Sudoeste 7 Oeste 0 -- -- 81
2018-10-12 02:00:00 17 5 Sudoeste 10 Sudoeste 0 -- -- 92
2018-10-12 01:00:00 17.4 0 Calma 5 Nordeste 0 -- -- 91
2018-10-12 00:00:00 17.5 3 Nordeste 7 Nordeste 0 -- -- 91
2018-10-11 23:00:00 17.3 5 Este 6 Este 0 -- -- 89
2018-10-11 22:00:00 17.9 4 Norte 7 Nordeste 0 -- -- 89
2018-10-11 21:00:00 19.2 0 Calma 10 Sudoeste 0 -- -- 84
2018-10-11 20:00:00 19.5 8 Sudoeste 15 Sudoeste 0 -- -- 82
2018-10-11 19:00:00 20 12 Sudoeste 32 Oeste 0 -- -- 79
2018-10-11 18:00:00 20.4 13 Sudoeste 24 Sur 0 -- -- 79
2018-10-11 17:00:00 19.8 19 Sudoeste 34 Sudoeste 0 -- -- 82
2018-10-11 16:00:00 18.2 13 Sudoeste 28 Sudoeste 0 -- -- 92
2018-10-11 15:00:00 17.8 10 Sudoeste 25 Sur 0.4 -- -- 93
2018-10-11 14:00:00 17.5 10 Sudoeste 19 Sudoeste 1.8 -- -- 92
2018-10-11 13:00:00 17.7 8 Sudoeste 27 Sudoeste 0.6 -- -- 90
2018-10-11 12:00:00 18.7 17 Sudoeste 27 Sudoeste 0 -- -- 82
2018-10-11 11:00:00 18.5 13 Sur 20 Sur 0 -- -- 86
2018-10-11 10:00:00 17.4 9 Sur 17 Sur 0 -- -- 93
2018-10-11 09:00:00 16.4 5 Sudeste 20 Sur 0.6 -- -- 93
2018-10-11 08:00:00 16.3 0 Calma 8 Sudoeste 0.2 -- -- 92
2018-10-11 07:00:00 16 4 Oeste 10 Oeste 4.2 -- -- 92
2018-10-11 06:00:00 16.4 6 Sudoeste 14 Sur 1.8 -- -- 89
2018-10-11 05:00:00 17 5 Sur 10 Sur 0 -- -- 76
2018-10-11 04:00:00 16.9 0 Calma 6 Sudeste 0 -- -- 69
2018-10-11 03:00:00 16.6 3 Este 10 Oeste 0 -- -- 70
2018-10-11 02:00:00 16.8 3 Sudoeste 8 Sur 0 -- -- 67
2018-10-11 01:00:00 17.7 6 Sur 10 Sudoeste 0 -- -- 63
2018-10-11 00:00:00 18.6 2 Sudeste 6 Sudeste 0 -- -- 59
2018-10-10 23:00:00 18.6 0 Calma 5 Este 0 -- -- 58
2018-10-10 22:00:00 18.8 3 Nordeste 10 Sur 0 -- -- 55
2018-10-10 21:00:00 19.8 8 Sur 19 Sudoeste 0 -- -- 52
2018-10-10 20:00:00 21.2 15 Sudoeste 31 Sudoeste 0 -- -- 48
2018-10-10 19:00:00 22.7 19 Sudoeste 30 Sur 0 -- -- 43
2018-10-10 18:00:00 24.1 13 Sur 27 Sudoeste 0 -- -- 41
2018-10-10 17:00:00 23.3 16 Sur 27 Sur 0 -- -- 44
2018-10-10 16:00:00 23 15 Sudoeste 23 Sur 0 -- -- 46
2018-10-10 15:00:00 22.4 12 Sudoeste 23 Oeste 0 -- -- 51
2018-10-10 14:00:00 20.2 10 Sur 19 Sur 0 -- -- 56
2018-10-10 13:00:00 18.4 12 Sur 18 Sur 0 -- -- 62
2018-10-10 12:00:00 17.5 12 Este 21 Este 0 -- -- 63
2018-10-10 11:00:00 16.4 15 Este 22 Este 0 -- -- 66
2018-10-10 10:00:00 15.7 10 Este 22 Este 0 -- -- 69
2018-10-10 09:00:00 14.6 11 Este 23 Este 0 -- -- 72
2018-10-10 08:00:00 13.7 14 Este 23 Este 0 -- -- 74
2018-10-10 07:00:00 14.1 15 Este 28 Este 0 -- -- 71
2018-10-10 06:00:00 14.6 17 Este 31 Este 0 -- -- 67
2018-10-10 05:00:00 15.2 17 Este 30 Nordeste 0 -- -- 65
2018-10-10 04:00:00 15.6 14 Este 33 Este 0 -- -- 62
2018-10-10 03:00:00 16.1 20 Este 41 Este 0 -- -- 59
2018-10-10 02:00:00 16.6 22 Este 36 Este 0 -- -- 55
2018-10-10 01:00:00 17.3 21 Este 34 Este 0 -- -- 49
2018-10-10 00:00:00 17.8 18 Este 28 Este 0 -- -- 45
2018-10-09 23:00:00 18.4 17 Este 24 Este 0 -- -- 40
2018-10-09 22:00:00 18.6 15 Este 21 Este 0 -- -- 38
2018-10-09 21:00:00 18.9 11 Nordeste 17 Nordeste 0 -- -- 38
2018-10-09 20:00:00 20.5 9 Este 23 Este 0 -- -- 36
2018-10-09 19:00:00 22.1 12 Este 30 Este 0 -- -- 33
2018-10-09 18:00:00 22.9 14 Este 27 Este 0 -- -- 32
2018-10-09 17:00:00 22.9 15 Este 29 Este 0 -- -- 30
2018-10-09 16:00:00 22.6 17 Este 34 Este 0 -- -- 35
2018-10-09 15:00:00 21.9 21 Este 40 Este 0 -- -- 37
2018-10-09 14:00:00 21.1 26 Este 42 Este 0 -- -- 39
2018-10-09 13:00:00 20.2 24 Este 45 Este 0 -- -- 41
2018-10-09 12:00:00 18.8 27 Este 44 Este 0 -- -- 45
2018-10-09 11:00:00 17.1 30 Este 49 Este 0 -- -- 49
2018-10-09 10:00:00 15.2 23 Este 41 Este 0 -- -- 55
2018-10-09 09:00:00 13.5 24 Este 43 Este 0 -- -- 60
2018-10-09 08:00:00 13.3 22 Este 40 Este 0 -- -- 60
2018-10-09 07:00:00 14.1 25 Este 37 Este 0 -- -- 51
2018-10-09 06:00:00 14.8 23 Este 36 Este 0 -- -- 48
2018-10-09 05:00:00 16 22 Este 40 Este 0 -- -- 44
2018-10-09 04:00:00 15.5 13 Nordeste 19 Nordeste 0 -- -- 45
2018-10-09 03:00:00 16.2 9 Nordeste 19 Nordeste 0 -- -- 44
2018-10-09 02:00:00 17.3 14 Nordeste 23 Nordeste 0 -- -- 42
2018-10-09 01:00:00 17.9 12 Nordeste 18 Nordeste 0 -- -- 41
2018-10-09 00:00:00 18.1 8 Nordeste 21 Norte 0 -- -- 41
2018-10-08 23:00:00 18.5 12 Norte 19 Nordeste 0 -- -- 39
2018-10-08 22:00:00 19.4 13 Nordeste 21 Nordeste 0 -- -- 38
2018-10-08 21:00:00 19 11 Nordeste 15 Nordeste 0 -- -- 38
2018-10-08 20:00:00 20.8 9 Este 24 Este 0 -- -- 34
2018-10-08 19:00:00 22.7 10 Este 22 Este 0 -- -- 31
2018-10-08 18:00:00 23.3 12 Este 27 Sudeste 0 -- -- 29
2018-10-08 17:00:00 23.3 17 Este 33 Sudeste 0 -- -- 29
2018-10-08 16:00:00 23.3 14 Este 30 Sudeste 0 -- -- 29
2018-10-08 15:00:00 22.5 15 Este 34 Este 0 -- -- 31
2018-10-08 14:00:00 21.5 20 Este 33 Este 0 -- -- 33
2018-10-08 13:00:00 20 24 Este 43 Este 0 -- -- 36
2018-10-08 12:00:00 18.4 26 Este 38 Este 0 -- -- 38
2018-10-08 11:00:00 17.6 21 Este 40 Este 0 -- -- 39
2018-10-08 10:00:00 15.6 21 Este 35 Este 0 -- -- 44
2018-10-08 09:00:00 13.7 18 Nordeste 29 Nordeste 0 -- -- 48
2018-10-08 08:00:00 13.2 20 Nordeste 36 Este 0 -- -- 48
2018-10-08 07:00:00 13.7 25 Este 42 Nordeste 0 -- -- 46
2018-10-08 06:00:00 14.3 25 Este 45 Este 0 -- -- 44
2018-10-08 05:00:00 15 26 Este 42 Este 0 -- -- 41
2018-10-08 04:00:00 15.2 24 Este 42 Este 0 -- -- 39
2018-10-08 03:00:00 15.8 24 Nordeste 39 Este 0 -- -- 37
2018-10-08 02:00:00 16.4 24 Nordeste 39 Nordeste 0 -- -- 35
2018-10-08 01:00:00 17.2 20 Nordeste 28 Nordeste 0 -- -- 35
2018-10-08 00:00:00 17.5 15 Nordeste 30 Norte 0 -- -- 35
2018-10-07 23:00:00 17.4 24 Norte 34 Norte 0 -- -- 35
2018-10-07 22:00:00 18 20 Norte 31 Norte 0 -- -- 34
2018-10-07 21:00:00 18.7 16 Norte 24 Norte 0 -- -- 33
2018-10-07 20:00:00 20.4 13 Norte 22 Norte 0 -- -- 33
2018-10-07 19:00:00 22.8 14 Norte 26 Norte 0 -- -- 30
2018-10-07 18:00:00 23.6 17 Norte 27 Noroeste 0 -- -- 30
2018-10-07 17:00:00 24 11 Nordeste 25 Este 0 -- -- 30
2018-10-07 16:00:00 23.5 12 Nordeste 29 Este 0 -- -- 30
2018-10-07 15:00:00 22.5 18 Nordeste 30 Norte 0 -- -- 33
2018-10-07 14:00:00 21.3 18 Norte 32 Norte 0 -- -- 35
2018-10-07 13:00:00 19.3 18 Norte 35 Norte 0 -- -- 38
2018-10-07 12:00:00 17.2 20 Norte 36 Norte 0 -- -- 42
2018-10-07 11:00:00 15.1 24 Norte 43 Norte 0 -- -- 45
2018-10-07 10:00:00 13.2 23 Norte 55 Norte 0 -- -- 49
2018-10-07 09:00:00 12.4 35 Norte 58 Norte 0 -- -- 51
2018-10-07 08:00:00 12.6 33 Norte 50 Norte 0 -- -- 52
2018-10-07 07:00:00 13.4 35 Norte 47 Norte 0 -- -- 50
2018-10-07 06:00:00 14.4 30 Norte 45 Norte 0 -- -- 50
2018-10-07 05:00:00 15.1 30 Norte 46 Norte 0 -- -- 49
2018-10-07 04:00:00 15.7 36 Norte 50 Norte 0 -- -- 51
2018-10-07 03:00:00 16.5 33 Norte 46 Norte 0 -- -- 54
2018-10-07 02:00:00 18.2 28 Norte 41 Norte 0 -- -- 53
2018-10-07 01:00:00 19.8 26 Noroeste 40 Norte 0 -- -- 47
2018-10-07 00:00:00 21.1 26 Norte 36 Noroeste 0 -- -- 43
2018-10-06 23:00:00 22.5 25 Noroeste 36 Noroeste 0 -- -- 38
2018-10-06 22:00:00 23.9 27 Noroeste 38 Noroeste 0 -- -- 30
2018-10-06 21:00:00 25.5 28 Noroeste 39 Noroeste 0 -- -- 28
2018-10-06 20:00:00 27 14 Oeste 32 Oeste 0 -- -- 24
2018-10-06 19:00:00 29.4 19 Oeste 34 Oeste 0 -- -- 22
2018-10-06 18:00:00 30.3 17 Oeste 32 Oeste 0 -- -- 22
2018-10-06 17:00:00 30.3 19 Oeste 36 Oeste 0 -- -- 21
2018-10-06 16:00:00 30.1 18 Oeste 31 Oeste 0 -- -- 22
2018-10-06 15:00:00 29.8 8 Sudoeste 24 Oeste 0 -- -- 23
2018-10-06 14:00:00 28.5 12 Sudoeste 19 Sudoeste 0 -- -- 24
2018-10-06 13:00:00 26.3 7 Sudoeste 18 Oeste 0 -- -- 28
2018-10-06 12:00:00 24.2 8 Sur 14 Sur 0 -- -- 31
2018-10-06 11:00:00 21.5 4 Sudeste 13 Sur 0 -- -- 35
2018-10-06 10:00:00 19.1 7 Nordeste 13 Nordeste 0 -- -- 38
2018-10-06 09:00:00 15.1 2 Oeste 5 Sudoeste 0 -- -- 47
2018-10-06 08:00:00 16.4 4 Nordeste 8 Nordeste 0 -- -- 42
2018-10-06 07:00:00 16.7 4 Nordeste 6 Norte 0 -- -- 41
2018-10-06 06:00:00 15.7 3 Norte 9 Este 0 -- -- 47
2018-10-06 05:00:00 19 6 Nordeste 14 Nordeste 0 -- -- 36
2018-10-06 04:00:00 17.6 10 Nordeste 25 Sur 0 -- -- 42
2018-10-06 03:00:00 21 4 Nordeste 10 Norte 0 -- -- 32
2018-10-06 02:00:00 21.2 9 Nordeste 12 Nordeste 0 -- -- 32
2018-10-06 01:00:00 21.9 8 Norte 18 Norte 0 -- -- 32
2018-10-06 00:00:00 23.9 2 Nordeste 9 Norte 0 -- -- 27
2018-10-05 23:00:00 23.3 6 Nordeste 12 Sudoeste 0 -- -- 29
2018-10-05 22:00:00 24.8 4 Norte 10 Nordeste 0 -- -- 27
2018-10-05 21:00:00 23.7 8 Norte 12 Norte 0 -- -- 28
2018-10-05 20:00:00 26.7 6 Noroeste 12 Oeste 0 -- -- 24
2018-10-05 19:00:00 30.2 8 Oeste 20 Sudoeste 0 -- -- 20
2018-10-05 18:00:00 30.7 5 Noroeste 22 Oeste 0 -- -- 20
2018-10-05 17:00:00 31.1 17 Oeste 29 Oeste 0 -- -- 20
2018-10-05 16:00:00 30.8 10 Oeste 23 Oeste 0 -- -- 20
2018-10-05 15:00:00 30 7 Sudoeste 17 Sudoeste 0 -- -- 21
2018-10-05 14:00:00 27.5 9 Este 20 Este 0 -- -- 25
2018-10-05 13:00:00 26 13 Este 23 Este 0 -- -- 27
2018-10-05 12:00:00 24.3 13 Este 22 Este 0 -- -- 30
2018-10-05 11:00:00 22.4 12 Este 20 Este 0 -- -- 33
2018-10-05 10:00:00 19.9 2 Este 13 Nordeste 0 -- -- 36
2018-10-05 09:00:00 17.4 8 Nordeste 14 Nordeste 0 -- -- 39
2018-10-05 08:00:00 16.3 7 Nordeste 13 Nordeste 0 -- -- 41
2018-10-05 07:00:00 15.3 4 Oeste 14 Nordeste 0 -- -- 42
2018-10-05 06:00:00 18 8 Nordeste 12 Nordeste 0 -- -- 37
2018-10-05 05:00:00 17.1 5 Oeste 10 Este 0 -- -- 38
2018-10-05 04:00:00 17.7 8 Este 9 Nordeste 0 -- -- 37
2018-10-05 03:00:00 19.9 3 Sudoeste 5 Oeste 0 -- -- 32
2018-10-05 02:00:00 20.9 0 Calma 4 Nordeste 0 -- -- 31
2018-10-05 01:00:00 21.7 0 Calma 12 Norte 0 -- -- 29
2018-10-05 00:00:00 22.2 7 Nordeste 17 Sudoeste 0 -- -- 28
2018-10-04 23:00:00 24.1 0 Calma 2 Sudoeste 0 -- -- 24
2018-10-04 22:00:00 25.4 2 Norte 5 Norte 0 -- -- 23
2018-10-04 21:00:00 25.7 4 Norte 5 Norte 0 -- -- 23
2018-10-04 20:00:00 28.4 3 Oeste 15 Oeste 0 -- -- 20
2018-10-04 19:00:00 30.5 8 Noroeste 21 Sudoeste 0 -- -- 20
2018-10-04 18:00:00 31.2 11 Oeste 27 Oeste 0 -- -- 18
2018-10-04 17:00:00 31.6 10 Sudoeste 28 Sudoeste 0 -- -- 20
2018-10-04 16:00:00 30.7 8 Sur 30 Sudeste 0 -- -- 22
2018-10-04 15:00:00 30.4 7 Sur 19 Oeste 0 -- -- 23
2018-10-04 14:00:00 29.4 9 Sudoeste 17 Este 0 -- -- 23
2018-10-04 13:00:00 27.4 5 Sudeste 13 Este 0 -- -- 25
2018-10-04 12:00:00 25.4 4 Sudeste 10 Sudeste 0 -- -- 29
2018-10-04 11:00:00 21.9 3 Sudoeste 7 Sur 0 -- -- 33
2018-10-04 10:00:00 16.9 3 Noroeste 6 Sur 0 -- -- 43
2018-10-04 09:00:00 16.1 3 Norte 8 Nordeste 0 -- -- 43
2018-10-04 08:00:00 15.9 5 Este 9 Este 0 -- -- 43
2018-10-04 07:00:00 17.2 3 Sudoeste 5 Sudoeste 0 -- -- 42
2018-10-04 06:00:00 16.4 3 Noroeste 7 Oeste 0 -- -- 48
2018-10-04 05:00:00 16.9 0 Calma 9 Noroeste 0 -- -- 55
2018-10-04 04:00:00 19.9 7 Noroeste 24 Norte 0 -- -- 38
2018-10-04 03:00:00 21.4 10 Norte 22 Norte 0 -- -- 34
2018-10-04 02:00:00 23.3 14 Norte 21 Norte 0 -- -- 30
2018-10-04 01:00:00 23.1 7 Norte 16 Norte 0 -- -- 29
2018-10-04 00:00:00 23.5 3 Nordeste 10 Noroeste 0 -- -- 26
2018-10-03 23:00:00 23.5 2 Noroeste 6 Norte 0 -- -- 25
2018-10-03 22:00:00 24 4 Norte 6 Norte 0 -- -- 26
2018-10-03 21:00:00 25.2 3 Norte 8 Norte 0 -- -- 25
2018-10-03 20:00:00 26.3 6 Norte 13 Norte 0 -- -- 24
2018-10-03 19:00:00 29.1 10 Norte 17 Noroeste 0 -- -- 21
2018-10-03 18:00:00 29.8 9 Norte 19 Norte 0 -- -- 20
2018-10-03 17:00:00 30.3 10 Noroeste 26 Nordeste 0 -- -- 17
2018-10-03 16:00:00 29.8 14 Norte 22 Norte 0 -- -- 18
2018-10-03 15:00:00 30 5 Sudoeste 15 Este 0 -- -- 18
2018-10-03 14:00:00 28.7 7 Sudeste 19 Este 0 -- -- 20
2018-10-03 13:00:00 26.6 10 Este 21 Este 0 -- -- 22
2018-10-03 12:00:00 24.2 12 Este 20 Este 0 -- -- 25
2018-10-03 11:00:00 22 6 Este 11 Este 0 -- -- 26
2018-10-03 10:00:00 19.6 4 Este 12 Nordeste 0 -- -- 28
2018-10-03 09:00:00 15 6 Norte 13 Nordeste 0 -- -- 35
2018-10-03 08:00:00 14 0 Calma 7 Nordeste 0 -- -- 40
2018-10-03 07:00:00 15.1 0 Calma 5 Oeste 0 -- -- 36
2018-10-03 06:00:00 16 3 Oeste 13 Nordeste 0 -- -- 33
2018-10-03 05:00:00 17.8 10 Nordeste 13 Nordeste 0 -- -- 29
2018-10-03 04:00:00 16.9 2 Norte 8 Oeste 0 -- -- 39
2018-10-03 03:00:00 18 6 Sudoeste 13 Norte 0 -- -- 38
2018-10-03 02:00:00 21.2 11 Norte 17 Norte 0 -- -- 21
2018-10-03 01:00:00 21.5 12 Norte 18 Norte 0 -- -- 23
2018-10-03 00:00:00 21.1 12 Norte 31 Norte 0 -- -- 25
2018-10-02 23:00:00 21.9 21 Norte 37 Norte 0 -- -- 23
2018-10-02 22:00:00 22.8 21 Norte 32 Norte 0 -- -- 21
2018-10-02 21:00:00 23 15 Norte 19 Norte 0 -- -- 17
2018-10-02 20:00:00 24.6 10 Norte 16 Norte 0 -- -- 16
2018-10-02 19:00:00 27.6 10 Norte 21 Este 0 -- -- 13
2018-10-02 18:00:00 28.3 12 Este 24 Este 0 -- -- 12
2018-10-02 17:00:00 28.1 12 Este 31 Este 0 -- -- 11
2018-10-02 16:00:00 27.7 12 Este 26 Este 0 -- -- 12
2018-10-02 15:00:00 26.5 16 Este 30 Este 0 -- -- 15
2018-10-02 14:00:00 25.7 15 Este 33 Este 0 -- -- 15
2018-10-02 13:00:00 25 16 Este 31 Este 0 -- -- 16
2018-10-02 12:00:00 22.2 15 Norte 29 Norte 0 -- -- 28
2018-10-02 11:00:00 19.5 14 Nordeste 27 Nordeste 0 -- -- 33
2018-10-02 10:00:00 16.7 18 Nordeste 41 Nordeste 0 -- -- 39
2018-10-02 09:00:00 15.4 23 Norte 40 Nordeste 0 -- -- 42
2018-10-02 08:00:00 15.4 20 Nordeste 31 Nordeste 0 -- -- 42
2018-10-02 07:00:00 15.7 18 Norte 31 Norte 0 -- -- 40
2018-10-02 06:00:00 17.4 19 Nordeste 31 Norte 0 -- -- 35
2018-10-02 05:00:00 18.5 14 Nordeste 33 Norte 0 -- -- 33
2018-10-02 04:00:00 19.7 19 Norte 39 Norte 0 -- -- 29
2018-10-02 03:00:00 18.7 27 Norte 40 Norte 0 -- -- 32
2018-10-02 02:00:00 19.3 30 Norte 45 Norte 0 -- -- 32
2018-10-02 01:00:00 20.1 26 Norte 42 Norte 0 -- -- 31
2018-10-02 00:00:00 20.9 30 Norte 45 Norte 0 -- -- 30
2018-10-01 23:00:00 21.7 27 Norte 42 Norte 0 -- -- 29
2018-10-01 22:00:00 22.7 30 Norte 45 Norte 0 -- -- 29
2018-10-01 21:00:00 23.6 26 Norte 37 Norte 0 -- -- 29
2018-10-01 20:00:00 25.3 22 Norte 33 Norte 0 -- -- 27
2018-10-01 19:00:00 27.7 22 Norte 34 Norte 0 -- -- 24
2018-10-01 18:00:00 28.8 22 Norte 33 Norte 0 -- -- 23
2018-10-01 17:00:00 29.1 18 Norte 32 Norte 0 -- -- 24
2018-10-01 16:00:00 28.8 17 Norte 31 Norte 0 -- -- 25
2018-10-01 15:00:00 28 18 Norte 31 Norte 0 -- -- 26
2018-10-01 14:00:00 26.8 21 Norte 35 Norte 0 -- -- 28
2018-10-01 13:00:00 24.6 25 Norte 39 Norte 0 -- -- 30
2018-10-01 12:00:00 23.1 26 Norte 37 Norte 0 -- -- 32
2018-10-01 11:00:00 19.7 27 Nordeste 41 Norte 0 -- -- 40
2018-10-01 10:00:00 20.2 19 Norte 41 Norte 0 -- -- 36
2018-10-01 09:00:00 17.8 31 Norte 42 Norte 0 -- -- 41
2018-10-01 08:00:00 19.2 10 Norte 51 Norte 0 -- -- 38
2018-10-01 07:00:00 21.1 33 Norte 45 Norte 0 -- -- 35
2018-10-01 06:00:00 22.2 19 Norte 32 Norte 0 -- -- 35
2018-10-01 05:00:00 23 24 Norte 33 Norte 0 -- -- 34
2018-10-01 04:00:00 23.1 24 Norte 35 Norte 0 -- -- 35
2018-10-01 03:00:00 23.9 24 Norte 31 Norte 0 -- -- 33
2018-10-01 02:00:00 24.4 18 Norte 29 Norte 0 -- -- 32
2018-10-01 01:00:00 25.6 23 Norte 31 Norte 0 -- -- 30
2018-10-01 00:00:00 26.1 19 Noroeste 28 Noroeste 0 -- -- 29
2018-09-30 23:00:00 25.6 13 Noroeste 17 Noroeste 0 -- -- 32
2018-09-30 22:00:00 27.2 13 Noroeste 18 Noroeste 0 -- -- 29
2018-09-30 21:00:00 28.3 12 Noroeste 15 Noroeste 0 -- -- 26
2018-09-30 20:00:00 29.7 5 Oeste 20 Oeste 0 -- -- 24
2018-09-30 19:00:00 31.8 4 Noroeste 19 Noroeste 0 -- -- 23
2018-09-30 18:00:00 31.8 8 Nordeste 24 Noroeste 0 -- -- 22
2018-09-30 17:00:00 32.5 12 Oeste 24 Oeste 0 -- -- 21
2018-09-30 16:00:00 31.6 9 Noroeste 23 Oeste 0 -- -- 24
2018-09-30 15:00:00 31.6 8 Sudoeste 21 Oeste 0 -- -- 27
2018-09-30 14:00:00 30.8 9 Sudoeste 16 Sur 0 -- -- 27
2018-09-30 13:00:00 28.9 6 Sudoeste 14 Sudoeste 0 -- -- 30
2018-09-30 12:00:00 26.8 7 Sudeste 15 Este 0 -- -- 32
2018-09-30 11:00:00 24.7 9 Sudeste 14 Sudeste 0 -- -- 34
2018-09-30 10:00:00 21.9 7 Este 14 Nordeste 0 -- -- 36
2018-09-30 09:00:00 19.7 8 Nordeste 13 Nordeste 0 -- -- 42
2018-09-30 08:00:00 17.6 4 Nordeste 9 Sudoeste 0 -- -- 48
2018-09-30 07:00:00 18.8 6 Nordeste 10 Norte 0 -- -- 44
2018-09-30 06:00:00 20 5 Norte 6 Norte 0 -- -- 39
2018-09-30 05:00:00 20.4 0 Calma 3 Oeste 0 -- -- 41
2018-09-30 04:00:00 21.2 0 Calma 8 Este 0 -- -- 40
2018-09-30 03:00:00 21.9 7 Nordeste 9 Nordeste 0 -- -- 38
2018-09-30 02:00:00 23.1 0 Calma 7 Este 0 -- -- 36
2018-09-30 01:00:00 23.4 3 Sudoeste 5 Sudoeste 0 -- -- 35
2018-09-30 00:00:00 24 2 Norte 8 Nordeste 0 -- -- 33
2018-09-29 23:00:00 23.8 6 Norte 17 Sudeste 0 -- -- 34
2018-09-29 22:00:00 25.6 4 Norte 8 Norte 0 -- -- 30
2018-09-29 21:00:00 26 7 Norte 11 Norte 0 -- -- 30
2018-09-29 20:00:00 28 10 Norte 17 Norte 0 -- -- 28
2018-09-29 19:00:00 30.6 10 Norte 23 Norte 0 -- -- 24
2018-09-29 18:00:00 31.4 12 Nordeste 22 Este 0 -- -- 24
2018-09-29 17:00:00 32.3 5 Sudeste 28 Sudoeste 0 -- -- 22
2018-09-29 16:00:00 32 8 Sur 24 Sudeste 0 -- -- 23
2018-09-29 15:00:00 31.4 8 Sudoeste 16 Sudeste 0 -- -- 25
2018-09-29 14:00:00 29.8 10 Este 34 Este 0 -- -- 27
2018-09-29 13:00:00 28.6 12 Este 27 Este 0 -- -- 28
2018-09-29 12:00:00 27.5 17 Este 29 Este 0 -- -- 31
2018-09-29 11:00:00 25.5 19 Este 27 Este 0 -- -- 35
2018-09-29 10:00:00 24 13 Este 20 Este 0 -- -- 39
2018-09-29 09:00:00 21.4 11 Nordeste 15 Nordeste 0 -- -- 46
2018-09-29 08:00:00 19.5 10 Nordeste 14 Nordeste 0 -- -- 52
2018-09-29 07:00:00 22.1 9 Este 15 Nordeste 0 -- -- 44
2018-09-29 06:00:00 21.3 11 Nordeste 15 Nordeste 0 -- -- 50
2018-09-29 05:00:00 22.6 9 Nordeste 14 Nordeste 0 -- -- 48
2018-09-29 04:00:00 22.4 6 Nordeste 10 Nordeste 0 -- -- 47
2018-09-29 03:00:00 23.9 7 Nordeste 9 Nordeste 0 -- -- 43
2018-09-29 02:00:00 22.9 4 Nordeste 6 Norte 0 -- -- 46
2018-09-29 01:00:00 23.6 2 Sudoeste 7 Nordeste 0 -- -- 44
2018-09-29 00:00:00 26.2 6 Nordeste 9 Nordeste 0 -- -- 38
2018-09-28 23:00:00 26.6 6 Nordeste 9 Nordeste 0 -- -- 37
2018-09-28 22:00:00 26.5 7 Nordeste 10 Nordeste 0 -- -- 39
2018-09-28 21:00:00 25.8 9 Nordeste 11 Nordeste 0 -- -- 41
2018-09-28 20:00:00 28.9 9 Norte 14 Noroeste 0 -- -- 35
2018-09-28 19:00:00 31.3 10 Noroeste 17 Norte 0 -- -- 30
2018-09-28 18:00:00 31.5 7 Nordeste 19 Este 0 -- -- 29
2018-09-28 17:00:00 31.8 7 Sudeste 21 Norte 0 -- -- 28
2018-09-28 16:00:00 31.3 8 Nordeste 23 Noroeste 0 -- -- 31
2018-09-28 15:00:00 30.6 10 Nordeste 17 Nordeste 0 -- -- 34
2018-09-28 14:00:00 30 7 Oeste 17 Sudoeste 0 -- -- 37
2018-09-28 13:00:00 28.9 10 Sudoeste 16 Sur 0 -- -- 38
2018-09-28 12:00:00 26.8 10 Sudeste 17 Este 0 -- -- 43
2018-09-28 11:00:00 24.9 7 Este 11 Sudeste 0 -- -- 48
2018-09-28 10:00:00 21.6 6 Nordeste 10 Este 0 -- -- 59
2018-09-28 09:00:00 19.4 5 Este 14 Nordeste 0 -- -- 65
2018-09-28 08:00:00 19.6 4 Este 8 Nordeste 0 -- -- 64
2018-09-28 07:00:00 20.9 3 Norte 6 Norte 0 -- -- 59
2018-09-28 06:00:00 20.2 3 Noroeste 7 Nordeste 0 -- -- 58
2018-09-28 05:00:00 20.9 4 Nordeste 8 Norte 0 -- -- 59
2018-09-28 04:00:00 20.3 4 Noroeste 11 Sur 0 -- -- 66
2018-09-28 03:00:00 24.1 6 Norte 12 Nordeste 0 -- -- 46
2018-09-28 02:00:00 24.4 8 Nordeste 14 Nordeste 0 -- -- 46
2018-09-28 01:00:00 24.6 9 Nordeste 13 Nordeste 0 -- -- 46
2018-09-28 00:00:00 25 8 Nordeste 11 Nordeste 0 -- -- 46
2018-09-27 23:00:00 25.2 8 Norte 13 Nordeste 0 -- -- 46
2018-09-27 22:00:00 25.6 8 Nordeste 13 Nordeste 0 -- -- 47
2018-09-27 21:00:00 26.2 8 Nordeste 11 Norte 0 -- -- 44
2018-09-27 20:00:00 28.2 7 Este 19 Sudeste 0 -- -- 39
2018-09-27 19:00:00 29.2 8 Este 20 Nordeste 0 -- -- 37
2018-09-27 18:00:00 29.8 11 Sudeste 24 Este 0 -- -- 36
2018-09-27 17:00:00 29.7 12 Este 22 Sudeste 0 -- -- 37
2018-09-27 16:00:00 29.4 14 Este 26 Este 0 -- -- 38
2018-09-27 15:00:00 28.4 10 Sudeste 31 Este 0 -- -- 42
2018-09-27 14:00:00 26.9 19 Este 37 Este 0 -- -- 45
2018-09-27 13:00:00 25.8 23 Este 47 Este 0 -- -- 48
2018-09-27 12:00:00 23.8 31 Este 48 Este 0 -- -- 54
2018-09-27 11:00:00 21.9 31 Este 50 Este 0 -- -- 60
2018-09-27 10:00:00 20.4 31 Este 50 Este 0 -- -- 65
2018-09-27 09:00:00 19.4 24 Este 38 Este 0 -- -- 69
2018-09-27 08:00:00 19.5 22 Este 40 Este 0 -- -- 68
2018-09-27 07:00:00 19.9 22 Este 39 Este 0 -- -- 66
2018-09-27 06:00:00 20.6 26 Este 40 Este 0 -- -- 63
2018-09-27 05:00:00 21.3 23 Este 39 Este 0 -- -- 62
2018-09-27 04:00:00 22.1 20 Este 36 Este 0 -- -- 62
2018-09-27 03:00:00 23 19 Este 36 Este 0 -- -- 60
2018-09-27 02:00:00 23.2 21 Este 35 Este 0 -- -- 61
2018-09-27 01:00:00 23.5 15 Este 24 Este 0 -- -- 60
2018-09-27 00:00:00 23.4 10 Nordeste 18 Nordeste 0 -- -- 64
2018-09-26 23:00:00 23.1 9 Sur 24 Este 0 -- -- 66
2018-09-26 22:00:00 24.4 18 Este 27 Nordeste 0 -- -- 59
2018-09-26 21:00:00 25.2 20 Este 43 Este 0 -- -- 48
2018-09-26 20:00:00 26.2 25 Este 39 Este 0 -- -- 48
2018-09-26 19:00:00 26.8 26 Este 42 Este 0 -- -- 50
2018-09-26 18:00:00 26.9 28 Este 45 Este 0 -- -- 51
2018-09-26 17:00:00 25.9 28 Este 44 Este 0 -- -- 57
2018-09-26 16:00:00 27.3 28 Este 41 Este 0 -- -- 51
2018-09-26 15:00:00 25.8 21 Este 41 Este 0 -- -- 57
2018-09-26 14:00:00 25.9 28 Este 50 Este 0 -- -- 54
2018-09-26 13:00:00 26.7 24 Este 47 Este 0 -- -- 53
2018-09-26 12:00:00 25 32 Este 48 Este 0 -- -- 58
2018-09-26 11:00:00 23.2 31 Este 49 Este 0 -- -- 64
2018-09-26 10:00:00 22.1 35 Este 56 Este 0 -- -- 67
2018-09-26 09:00:00 21.6 30 Este 51 Este 0 -- -- 68
2018-09-26 08:00:00 21.3 26 Este 48 Este 0 -- -- 69
2018-09-26 07:00:00 21.8 33 Este 57 Este 0 -- -- 68
2018-09-26 06:00:00 22.3 34 Este 49 Este 0 -- -- 65
2018-09-26 05:00:00 23.8 20 Este 33 Este 0 -- -- 55
2018-09-26 04:00:00 24.6 13 Nordeste 20 Nordeste 0 -- -- 41
2018-09-26 03:00:00 25.6 12 Nordeste 15 Norte 0 -- -- 38
2018-09-26 02:00:00 25.4 8 Este 17 Sur 0 -- -- 38
2018-09-26 01:00:00 27.2 8 Nordeste 28 Norte 0 -- -- 34
2018-09-26 00:00:00 28.7 20 Norte 26 Norte 0 -- -- 33
2018-09-25 23:00:00 29.3 15 Norte 27 Norte 0 -- -- 32
2018-09-25 22:00:00 28.8 8 Norte 17 Norte 0 -- -- 30
2018-09-25 21:00:00 29.2 15 Norte 18 Norte 0 -- -- 31
2018-09-25 20:00:00 31.4 13 Norte 20 Norte 0 -- -- 30
2018-09-25 19:00:00 33.7 14 Norte 23 Norte 0 -- -- 25
2018-09-25 18:00:00 34.6 14 Norte 26 Norte 0 -- -- 26
2018-09-25 17:00:00 34.7 6 Este 17 Este 0 -- -- 26
2018-09-25 16:00:00 34.5 9 Este 21 Sudeste 0 -- -- 27
2018-09-25 15:00:00 33.5 8 Este 21 Sudeste 0 -- -- 30
2018-09-25 14:00:00 31.9 13 Sudeste 26 Este 0 -- -- 34
2018-09-25 13:00:00 30 15 Este 27 Este 0 -- -- 36
2018-09-25 12:00:00 28.6 16 Este 35 Este 0 -- -- 38
2018-09-25 11:00:00 26.7 22 Este 32 Este 0 -- -- 42
2018-09-25 10:00:00 24.3 15 Nordeste 25 Nordeste 0 -- -- 44
2018-09-25 09:00:00 22.7 20 Nordeste 33 Nordeste 0 -- -- 45
2018-09-25 08:00:00 23.8 18 Nordeste 29 Nordeste 0 -- -- 43
2018-09-25 07:00:00 24.2 16 Nordeste 27 Norte 0 -- -- 42
2018-09-25 06:00:00 24.6 15 Norte 27 Nordeste 0 -- -- 41
2018-09-25 05:00:00 25.3 14 Nordeste 34 Norte 0 -- -- 40
2018-09-25 04:00:00 24.6 24 Norte 39 Norte 0 -- -- 41
2018-09-25 03:00:00 24.8 26 Norte 36 Norte 0 -- -- 40
2018-09-25 02:00:00 25.5 21 Norte 37 Norte 0 -- -- 42
2018-09-25 01:00:00 26.6 26 Norte 36 Norte 0 -- -- 40
2018-09-25 00:00:00 27.5 27 Norte 39 Norte 0 -- -- 39
2018-09-24 23:00:00 28.3 22 Norte 36 Norte 0 -- -- 38
2018-09-24 22:00:00 29.9 18 Norte 23 Norte 0 -- -- 28
2018-09-24 21:00:00 29.9 9 Norte 10 Norte 0 -- -- 25
2018-09-24 20:00:00 32.9 7 Norte 14 Noroeste 0 -- -- 22
2018-09-24 19:00:00 35 6 Norte 22 Noroeste 0 -- -- 20
2018-09-24 18:00:00 35.4 10 Norte 23 Norte 0 -- -- 20
2018-09-24 17:00:00 35.6 14 Norte 31 Oeste 0 -- -- 21
2018-09-24 16:00:00 35.6 14 Norte 24 Norte 0 -- -- 21
2018-09-24 15:00:00 34.7 13 Este 26 Este 0 -- -- 24
2018-09-24 14:00:00 33.1 15 Nordeste 29 Nordeste 0 -- -- 27
2018-09-24 13:00:00 31.9 18 Nordeste 29 Nordeste 0 -- -- 29
2018-09-24 12:00:00 30.7 17 Este 37 Este 0 -- -- 31
2018-09-24 11:00:00 28.3 20 Nordeste 33 Nordeste 0 -- -- 35
2018-09-24 10:00:00 26.4 13 Nordeste 27 Nordeste 0 -- -- 34
2018-09-24 09:00:00 25.5 14 Nordeste 23 Nordeste 0 -- -- 33
2018-09-24 08:00:00 25 14 Nordeste 23 Este 0 -- -- 33
2018-09-24 07:00:00 25.1 8 Nordeste 24 Nordeste 0 -- -- 31
2018-09-24 06:00:00 27.7 13 Nordeste 24 Norte 0 -- -- 27
2018-09-24 05:00:00 27.4 19 Norte 31 Norte 0 -- -- 27
2018-09-24 04:00:00 27.3 21 Norte 33 Norte 0 -- -- 28
2018-09-24 03:00:00 27.5 15 Este 33 Norte 0 -- -- 27
2018-09-24 02:00:00 28.7 19 Norte 35 Norte 0 -- -- 26
2018-09-24 01:00:00 29 22 Norte 35 Norte 0 -- -- 26
2018-09-24 00:00:00 29.3 22 Norte 34 Norte 0 -- -- 27
2018-09-23 23:00:00 29.6 20 Norte 27 Norte 0 -- -- 27
2018-09-23 22:00:00 30.1 14 Norte 18 Noroeste 0 -- -- 27
2018-09-23 21:00:00 30.1 7 Norte 9 Norte 0 -- -- 27
2018-09-23 20:00:00 33.4 5 Norte 13 Oeste 0 -- -- 23
2018-09-23 19:00:00 35.5 8 Noroeste 21 Nordeste 0 -- -- 21
2018-09-23 18:00:00 35.7 8 Noroeste 22 Norte 0 -- -- 20
2018-09-23 17:00:00 35.3 7 Nordeste 27 Noroeste 0 -- -- 22
2018-09-23 16:00:00 35.1 12 Nordeste 27 Nordeste 0 -- -- 23
2018-09-23 15:00:00 35.6 9 Noroeste 24 Norte 0 -- -- 22
2018-09-23 14:00:00 34.9 11 Nordeste 20 Este 0 -- -- 23
2018-09-23 13:00:00 33.4 12 Este 23 Este 0 -- -- 24
2018-09-23 12:00:00 31.8 14 Este 23 Este 0 -- -- 26
2018-09-23 11:00:00 30 10 Este 16 Este 0 -- -- 29
2018-09-23 10:00:00 24.8 2 Oeste 9 Norte 0 -- -- 40
2018-09-23 09:00:00 22.9 4 Nordeste 9 Nordeste 0 -- -- 42
2018-09-23 08:00:00 22.4 7 Nordeste 9 Nordeste 0 -- -- 42
2018-09-23 07:00:00 22.3 3 Nordeste 13 Sudoeste 0 -- -- 43
2018-09-23 06:00:00 25.3 8 Noroeste 35 Norte 0 -- -- 38
2018-09-23 05:00:00 27.4 24 Norte 36 Norte 0 -- -- 30
2018-09-23 04:00:00 27.4 27 Norte 38 Norte 0 -- -- 29
2018-09-23 03:00:00 27.3 20 Norte 30 Norte 0 -- -- 31
2018-09-23 02:00:00 25.3 3 Sur 21 Norte 0 -- -- 38
2018-09-23 01:00:00 28.4 17 Norte 24 Norte 0 -- -- 30
2018-09-23 00:00:00 27.8 12 Norte 15 Norte 0 -- -- 31
2018-09-22 23:00:00 28.8 12 Norte 15 Norte 0 -- -- 29
2018-09-22 22:00:00 28.9 13 Norte 16 Norte 0 -- -- 30
2018-09-22 21:00:00 29.5 14 Norte 17 Norte 0 -- -- 30
2018-09-22 20:00:00 31.8 12 Norte 20 Norte 0 -- -- 28
2018-09-22 19:00:00 33.8 12 Norte 20 Norte 0 -- -- 27
2018-09-22 18:00:00 35.8 9 Sudoeste 26 Sudoeste 0 -- -- 21
2018-09-22 17:00:00 35.9 10 Sudoeste 24 Sudoeste 0 -- -- 22
2018-09-22 16:00:00 35.7 13 Sudoeste 28 Oeste 0 -- -- 23
2018-09-22 15:00:00 34 7 Norte 18 Sudeste 0 -- -- 25
2018-09-22 14:00:00 33.9 6 Sudeste 16 Sudeste 0 -- -- 26
2018-09-22 13:00:00 32.1 8 Nordeste 21 Este 0 -- -- 26
2018-09-22 12:00:00 30.3 12 Este 23 Este 0 -- -- 32
2018-09-22 11:00:00 27.7 5 Este 8 Norte 0 -- -- 36
2018-09-22 10:00:00 24.6 3 Sudeste 6 Este 0 -- -- 42
2018-09-22 09:00:00 20.7 0 Calma 4 Noroeste 0 -- -- 51
2018-09-22 08:00:00 20.5 3 Oeste 9 Nordeste 0 -- -- 53
2018-09-22 07:00:00 21.4 4 Noroeste 19 Norte 0 -- -- 51
2018-09-22 06:00:00 24 10 Noroeste 27 Noroeste 0 -- -- 42
2018-09-22 05:00:00 24.3 12 Norte 19 Norte 0 -- -- 32
2018-09-22 04:00:00 24.8 11 Norte 22 Norte 0 -- -- 34
2018-09-22 03:00:00 25.5 16 Norte 23 Norte 0 -- -- 35
2018-09-22 02:00:00 26 16 Norte 30 Norte 0 -- -- 35
2018-09-22 01:00:00 27.1 15 Norte 25 Norte 0 -- -- 34
2018-09-22 00:00:00 27 18 Norte 27 Norte 0 -- -- 34
2018-09-21 23:00:00 26.9 16 Norte 26 Norte 0 -- -- 34
2018-09-21 22:00:00 27 8 Norte 11 Norte 0 -- -- 32
2018-09-21 21:00:00 27.8 9 Norte 11 Norte 0 -- -- 32
2018-09-21 20:00:00 30.5 9 Norte 20 Oeste 0 -- -- 29
2018-09-21 19:00:00 32 6 Oeste 22 Oeste 0 -- -- 24
2018-09-21 18:00:00 33.2 13 Noroeste 21 Noroeste 0 -- -- 24
2018-09-21 17:00:00 32.9 12 Oeste 24 Oeste 0 -- -- 24
2018-09-21 16:00:00 33.6 9 Sudoeste 34 Noroeste 0 -- -- 26
2018-09-21 15:00:00 31.9 10 Norte 29 Norte 0 -- -- 25
2018-09-21 14:00:00 31 8 Norte 18 Norte 0 -- -- 26
2018-09-21 13:00:00 29.9 12 Norte 29 Norte 0 -- -- 26
2018-09-21 12:00:00 28.2 18 Norte 30 Nordeste 0 -- -- 29
2018-09-21 11:00:00 25.6 18 Nordeste 30 Nordeste 0 -- -- 34
2018-09-21 10:00:00 23.8 7 Noroeste 21 Norte 0 -- -- 38
2018-09-21 09:00:00 22.6 13 Norte 22 Norte 0 -- -- 40
2018-09-21 08:00:00 22.5 5 Nordeste 26 Norte 0 -- -- 41
2018-09-21 07:00:00 22.7 15 Norte 27 Norte 0 -- -- 40
2018-09-21 06:00:00 23.2 26 Norte 46 Norte 0 -- -- 41
2018-09-21 05:00:00 23.6 33 Norte 43 Norte 0 -- -- 41
2018-09-21 04:00:00 24.3 28 Norte -- -- -- -- -- 39
2018-09-21 03:00:00 24.4 26 Norte 37 Norte 0 -- -- 39
2018-09-21 02:00:00 25.6 24 Norte 36 Norte 0 -- -- 34
2018-09-21 01:00:00 25.6 27 Norte 37 Norte 0 -- -- 33
2018-09-21 00:00:00 26.3 24 Norte 33 Norte 0 -- -- 35
2018-09-20 23:00:00 27.4 24 Noroeste 37 Noroeste 0 -- -- 36
2018-09-20 22:00:00 27.2 8 Oeste 12 Oeste 0 -- -- 41
2018-09-20 21:00:00 28.6 5 Nordeste 13 Este 0 -- -- 41
2018-09-20 20:00:00 31.3 6 Norte 15 Norte 0 -- -- 32
2018-09-20 19:00:00 32.5 12 Nordeste 23 Norte 0 -- -- 30
2018-09-20 18:00:00 33.6 10 Noroeste 24 Sudoeste 0 -- -- 29
2018-09-20 17:00:00 34.4 11 Sudoeste 27 Oeste 0 -- -- 27
2018-09-20 16:00:00 34.4 8 Oeste 24 Sudoeste 0 -- -- 28
2018-09-20 15:00:00 33.4 13 Sur 22 Sur 0 -- -- 30
2018-09-20 14:00:00 32.8 8 Sudoeste 15 Este 0 -- -- 31
2018-09-20 13:00:00 30.4 6 Sudeste 20 Sudeste 0 -- -- 35
2018-09-20 12:00:00 28.6 9 Este 21 Sudeste 0 -- -- 39
2018-09-20 11:00:00 26.9 7 Sudeste 15 Este 0 -- -- 41
2018-09-20 10:00:00 24.6 6 Este 10 Este 0 -- -- 42
2018-09-20 09:00:00 19.2 5 Nordeste 9 Oeste 0 -- -- 55
2018-09-20 08:00:00 19.8 5 Oeste 12 Nordeste 0 -- -- 53
2018-09-20 07:00:00 19.3 3 Nordeste 12 Este 0 -- -- 54
2018-09-20 06:00:00 20.3 0 Calma 8 Oeste 0 -- -- 53
2018-09-20 05:00:00 21 3 Oeste 6 Sur 0 -- -- 52
2018-09-20 04:00:00 21.8 2 Oeste 8 Este 0 -- -- 43
2018-09-20 03:00:00 23 2 Sudeste 8 Sudoeste 0 -- -- 38
2018-09-20 02:00:00 25.2 4 Noroeste 10 Oeste 0 -- -- 31
2018-09-20 01:00:00 25.2 0 Calma 10 Nordeste 0 -- -- 32
2018-09-20 00:00:00 25.2 4 Este 7 Nordeste 0 -- -- 33